EGBJ - Staverton Private
Distance from station: E 5mi, 14km
Updated: 12/15/2017 10:50am
NOT Current
Partly Cloudy
Partly Cloudy
 Wind from N
Wind: N 9 mph , 15 km/h
Temperature: 41°F , 5°C
Wind Chill: 35°F , 2°C
Dew Point: 36°F , 2°C
Humidity: 81%
Barometer: 29.8 inHg , 1009 hPa
Clouds: Partly Cloudy
Visibility: 6 miles , 10 km
Cloud details: Partly Cloudy 3500 ft
2017/12/15 18:50 EGBJ 151850Z 01008KT 9999 SCT035 05/02 Q1009